Relevés stations proches


LFBH - La Rochelle, Charente Maritime
Mise à jour: 24/10/2018 03:00
Clair
Clair
 Wind from NNE
Vent: NNE 11 km/h
Température: 9°C
Refroidissement éolien: 7°C
Point de rosée: 8°C
Humidité: 94%
Baromètre: 1030 hPa
Ciel: Clair
Visibilité: Supérieure à 10 km
2018/10/24 03:00 LFBH 240300Z AUTO 02006KT CAVOK 09/08 Q1030 TEMPO 0500 FG
LFBC - Cognac, Charente
Mise à jour: 24/10/2018 03:00
Clair
Clair
 Wind from N
Vent: N 7 km/h
Température: 6°C
Refroidissement éolien: 4°C
Point de rosée: 4°C
Humidité: 87%
Baromètre: 1030 hPa
Ciel: Clair
Visibilité: Supérieure à 10 km
2018/10/24 03:00 LFBC 240300Z AUTO 35004KT CAVOK 06/04 Q1030 TEMPO 4000 MIFG
 
LFBU - Angoulème, Charente
Mise à jour: 24/10/2018 03:00
Clair
Clair
 Wind from N
Vent: N 11 km/h
Température: 6°C
Refroidissement éolien: 4°C
Point de rosée: 4°C
Humidité: 87%
Baromètre: 1029 hPa
Ciel: Clair
Visibilité: Supérieure à 10 km
2018/10/24 03:00 LFBU 240300Z AUTO 36006KT CAVOK 06/04 Q1029
LFRI - La Roche sur Yon, Vendée
Mise à jour: 24/10/2018 03:00

 Wind from N
Vent: N 6 km/h
Visibilité: 1 km
2018/10/24 03:00 LFRI 240300Z AUTO 01003KT 0750 0700 R28/0900D FG VV/// 10/09 Q1031
 
LFBI - Poitiers, Vienne
Mise à jour: 24/10/2018 03:00
Partiellement nuageux
Partiellement nuageux
 Wind from NO
Vent: NO 9 km/h
Température: 6°C
Refroidissement éolien: 4°C
Point de rosée: 6°C
Humidité: 100%
Baromètre: 1030 hPa
Ciel: Partiellement nuageux
Visibilité: 7 km
2018/10/24 03:00 LFBI 240300Z AUTO 32005KT 7000 NSC 06/06 Q1030 TEMPO 0400 FG VV///
LFRS - Nantes, Loire Atlantique
Mise à jour: 24/10/2018 03:00
Partiellement nuageux
Partiellement nuageux
 Wind from NNO
Vent: NNO 4 km/h
Température: 6°C
Point de rosée: 5°C
Humidité: 93%
Baromètre: 1031 hPa
Ciel: Partiellement nuageux
Visibilité: 6 km
2018/10/24 03:00 LFRS 240300Z AUTO 34002KT 6000 NSC 06/05 Q1031 BECMG 0400 FG VV///
 
LFBD - Bordeaux, Gironde
Mise à jour: 24/10/2018 03:00
Clair
Clair
 Wind from O
Vent: O 6 km/h
Température: 7°C
Point de rosée: 5°C
Humidité: 87%
Baromètre: 1030 hPa
Ciel: Clair
Visibilité: Supérieure à 10 km
2018/10/24 03:00 LFBD 240300Z AUTO 28003KT CAVOK 07/05 Q1030 TEMPO 3000 MIFG
LFBL - Limoges, Haute Vienne
Mise à jour: 24/10/2018 03:00
Clair
Clair
 Wind from varies
Vent: varies 6 km/h
Température: 8°C
Point de rosée: 4°C
Humidité: 76%
Baromètre: 1029 hPa
Ciel: Clair
Visibilité: Supérieure à 10 km
2018/10/24 03:00 LFBL 240300Z AUTO VRB03KT CAVOK 08/04 Q1029 NOSIG